Météo Nord-Pas-de-Calais   La météo au plus près de chez vous

Station météorologique

Observations météo à Auxerre-Perrigny (89295)

89295001 152 m Dernier relevé à 14:36
25.1°C
Humidité 44 % Vent 6.1 km/h 1022 hPa

Journée consultée

Mercredi 2 Septembre 2026

Synthèse de la journée

Périodes de référence en UTC

Température maximale

25.2°C

à 14:30

06h 06h

Température minimale

12°C

à 06:06

18h 18h

Rafale maximale

22 km/h

à 13:48

00h 00h

Précipitations

0.2 mm

Cumul quotidien

06h 06h

Ensoleillement

5h 45 mins

Durée quotidienne

00h 00h

Graphiques de la journée

Heure locale Réduire

Données détaillées

Relevés météo

Pas de 6 minutes Afficher les relevés infra-horaires
Relevés météo détaillés à Auxerre-Perrigny pour le Mercredi 2 Septembre 2026
Heure Température °C Point de rosée °C Humidité % Vent moyen (raf.), km/h Précipitations mm Température à 10 cm °C Température à 20 cm °C Température à 50 cm °C Température à 100 cm °C Visibilité m État du sol   Hauteur neige cm Ensoleillement min Rayonnement global W/m² Pression hPa Nébulosité Octas
14:36 25.1 °C 10.9 °C 41 % 12 km/h (20 km/h) 0 mm0 mm 23.6 °C 22.8 °C 21.6 °C 21.7 °C 20000 m 0   0 cm 5 min 269.5 W/m² 1021.8 hPa
14:30 25.2 °C 11.4 °C 42 % 8 km/h (19 km/h) 0 mm0 mm 23.5 °C 22.8 °C 21.7 °C 21.7 °C 20000 m 0   0 cm 5 min 244.7 W/m² 1021.7 hPa
14:24 25.1 °C 10.5 °C 40 % 9 km/h (16 km/h) 0 mm0 mm 23.5 °C 22.7 °C 21.7 °C 21.7 °C 19300 m 0   0 cm 6 min 281.1 W/m² 1021.7 hPa
14:18 24.9 °C 10.7 °C 41 % 9 km/h (16 km/h) 0 mm0 mm 23.4 °C 22.7 °C 21.7 °C 21.7 °C 20000 m 0   0 cm 6 min 283.1 W/m² 1021.8 hPa
14:12 24.7 °C 10.9 °C 42 % 5 km/h (12 km/h) 0 mm0 mm 23.3 °C 22.6 °C 21.7 °C 21.7 °C 20000 m 0   0 cm 6 min 285.8 W/m² 1021.8 hPa
14:06 24.7 °C 10.6 °C 41 % 9 km/h (21 km/h) 0 mm0 mm 23.3 °C 22.5 °C 21.7 °C 21.7 °C 20000 m 0   0 cm 6 min 289.3 W/m² 1021.9 hPa
14:00 24.7 °C 11.6 °C 44 % 10 km/h (21 km/h) 0 mm0 mm 23.2 °C 22.4 °C 21.7 °C 21.7 °C 20000 m 0   0 cm 6 min 298.6 W/m² 1021.9 hPa
13:54 24.6 °C 10.8 °C 42 % 12 km/h (22 km/h) 0 mm0 mm 23.1 °C 22.4 °C 21.7 °C 21.7 °C 20000 m 0   0 cm 6 min 309.5 W/m² 1022 hPa
13:48 24.7 °C 11.3 °C 43 % 9 km/h (22 km/h) 0 mm0 mm 23.1 °C 22.3 °C 21.7 °C 21.7 °C 20000 m 0   0 cm 6 min 238.5 W/m² 1021.9 hPa
13:42 24.6 °C 11.2 °C 43 % 5 km/h (12 km/h) 0 mm0 mm 23 °C 22.2 °C 21.7 °C 21.7 °C 20000 m 0   0 cm 5 min 234.6 W/m² 1022.1 hPa
13:36 24.2 °C 11.2 °C 44 % 6 km/h (15 km/h) 0 mm0 mm 22.9 °C 22.1 °C 21.7 °C 21.7 °C 20000 m 0   0 cm 3 min 228.3 W/m² 1022 hPa
13:30 24.2 °C 10.8 °C 43 % 9 km/h (17 km/h) 0 mm0 mm 22.8 °C 22.1 °C 21.7 °C 21.7 °C 20000 m 0   0 cm 6 min 327.6 W/m² 1022.1 hPa
13:24 24.1 °C 11.1 °C 44 % 7 km/h (18 km/h) 0 mm0 mm 22.7 °C 22 °C 21.7 °C 21.7 °C 19250 m 0   0 cm 6 min 322 W/m² 1022.1 hPa
13:18 23.5 °C 10.5 °C 44 % 8 km/h (18 km/h) 0 mm0 mm 22.7 °C 21.9 °C 21.7 °C 21.7 °C 12930 m 0   0 cm 6 min 243.5 W/m² 1022.2 hPa
13:12 23.5 °C 10.9 °C 45 % 12 km/h (19 km/h) 0 mm0 mm 22.6 °C 21.8 °C 21.7 °C 21.7 °C 12240 m 0   0 cm 3 min 182.5 W/m² 1022.3 hPa
13:06 23.5 °C 11.2 °C 46 % 11 km/h (17 km/h) 0 mm0 mm 22.5 °C 21.7 °C 21.7 °C 21.7 °C 0   0 cm 3 min 192.5 W/m² 1022.3 hPa
13:00 23.4 °C 11.1 °C 46 % 12 km/h (21 km/h) 0 mm0 mm 22.3 °C 21.6 °C 21.7 °C 21.7 °C 20000 m 0   0 cm 0 min 173.1 W/m² 1022.4 hPa
12:54 23.4 °C 11.4 °C 47 % 10 km/h (21 km/h) 0 mm0 mm 22.3 °C 21.5 °C 21.7 °C 21.7 °C 20000 m 0   0 cm 3 min 190.6 W/m² 1022.5 hPa
12:48 23.2 °C 11.9 °C 49 % 9 km/h (17 km/h) 0 mm0 mm 22.1 °C 21.4 °C 21.7 °C 21.7 °C 20000 m 0   0 cm 0 min 153.6 W/m² 1022.5 hPa
12:42 23.5 °C 11.9 °C 48 % 8 km/h (15 km/h) 0 mm0 mm 21.9 °C 21.3 °C 21.7 °C 21.7 °C 19650 m 0   0 cm 3 min 206.5 W/m² 1022.5 hPa
12:36 23.6 °C 11.6 °C 47 % 8 km/h (15 km/h) 0 mm0 mm 21.8 °C 21.2 °C 21.7 °C 21.7 °C 19650 m 0   0 cm 6 min 273.9 W/m² 1022.5 hPa
12:30 23.4 °C 11.4 °C 47 % 10 km/h (17 km/h) 0 mm0 mm 21.7 °C 21.2 °C 21.8 °C 21.7 °C 20000 m 0   0 cm 6 min 231.4 W/m² 1022.5 hPa
12:24 23.4 °C 12.1 °C 49 % 9 km/h (17 km/h) 0 mm0 mm 21.6 °C 21 °C 21.8 °C 21.7 °C 20000 m 0   0 cm 6 min 268.7 W/m² 1022.5 hPa
12:18 23.1 °C 12.1 °C 50 % 8 km/h (15 km/h) 0 mm0 mm 21.5 °C 20.9 °C 21.8 °C 21.7 °C 18970 m 0   0 cm 6 min 263.4 W/m² 1022.5 hPa
12:12 22.9 °C 12.5 °C 52 % 7 km/h (13 km/h) 0 mm0 mm 21.3 °C 20.9 °C 21.8 °C 21.7 °C 19720 m 0   0 cm 6 min 255.2 W/m² 1022.6 hPa
12:06 22.6 °C 12.2 °C 52 % 6 km/h (13 km/h) 0 mm0 mm 21.2 °C 20.8 °C 21.8 °C 21.7 °C 20000 m 0   0 cm 6 min 251.4 W/m² 1022.5 hPa
12:00 22.2 °C 12.4 °C 54 % 7 km/h (13 km/h) 0 mm0 mm 21.1 °C 20.7 °C 21.8 °C 21.7 °C 19910 m 0   0 cm 6 min 252.4 W/m² 1022.5 hPa
11:54 22 °C 12.5 °C 55 % 7 km/h (12 km/h) 0 mm0 mm 20.9 °C 20.6 °C 21.8 °C 21.7 °C 20000 m 0   0 cm 6 min 243.3 W/m² 1022.6 hPa
11:48 22 °C 12.5 °C 55 % 7 km/h (12 km/h) 0 mm0 mm 20.8 °C 20.6 °C 21.8 °C 21.7 °C 20000 m 0   0 cm 6 min 243.9 W/m² 1022.6 hPa
11:42 21.8 °C 12.9 °C 57 % 6 km/h (12 km/h) 0 mm0 mm 20.7 °C 20.5 °C 21.8 °C 21.7 °C 20000 m 0   0 cm 6 min 239.5 W/m² 1022.5 hPa
11:36 21.5 °C 12.9 °C 58 % 7 km/h (13 km/h) 0 mm0 mm 20.6 °C 20.4 °C 21.8 °C 21.7 °C 20000 m 0   0 cm 6 min 232.8 W/m² 1022.4 hPa
11:30 21.4 °C 13.1 °C 59 % 6 km/h (11 km/h) 0 mm0 mm 20.5 °C 20.4 °C 21.8 °C 21.7 °C 20000 m 0   0 cm 6 min 229.4 W/m² 1022.4 hPa
11:24 21.2 °C 13.1 °C 60 % 5 km/h (10 km/h) 0 mm0 mm 20.4 °C 20.3 °C 21.8 °C 21.7 °C 20000 m 0   0 cm 6 min 223.9 W/m² 1022.5 hPa
11:18 21 °C 12.7 °C 59 % 6 km/h (10 km/h) 0 mm0 mm 20.3 °C 20.2 °C 21.8 °C 21.7 °C 20000 m 0   0 cm 6 min 212.8 W/m² 1022.6 hPa
11:12 21 °C 12.9 °C 60 % 5 km/h (10 km/h) 0 mm0 mm 20.2 °C 20.1 °C 21.8 °C 21.7 °C 20000 m 0   0 cm 6 min 218.9 W/m² 1022.5 hPa
11:06 20.7 °C 12.9 °C 61 % 4 km/h (9 km/h) 0 mm0 mm 20.1 °C 20.1 °C 21.8 °C 21.7 °C 20000 m 0   0 cm 6 min 209.1 W/m² 1022.5 hPa
11:00 20.6 °C 13.1 °C 62 % 4 km/h (9 km/h) 0 mm0 mm 20 °C 20 °C 21.8 °C 21.7 °C 20000 m 0   0 cm 6 min 207.1 W/m² 1022.4 hPa
10:54 20.1 °C 12.8 °C 63 % 4 km/h (8 km/h) 0 mm0 mm 19.9 °C 20 °C 21.9 °C 21.7 °C 20000 m 0   0 cm 6 min 198.6 W/m² 1022.4 hPa
10:48 19.8 °C 12.8 °C 64 % 4 km/h (8 km/h) 0 mm0 mm 19.8 °C 19.9 °C 21.8 °C 21.7 °C 20000 m 0   0 cm 6 min 192.8 W/m² 1022.4 hPa
10:42 19.6 °C 13.1 °C 66 % 4 km/h (8 km/h) 0 mm0 mm 19.8 °C 19.9 °C 21.8 °C 21.7 °C 20000 m 0   0 cm 6 min 194.2 W/m² 1022.5 hPa
10:36 19.4 °C 12.9 °C 66 % 4 km/h (8 km/h) 0 mm0 mm 19.7 °C 19.9 °C 21.9 °C 21.7 °C 20000 m 0   0 cm 6 min 180.6 W/m² 1022.5 hPa
10:30 19.2 °C 12.9 °C 67 % 4 km/h (8 km/h) 0 mm0 mm 19.6 °C 19.8 °C 21.9 °C 21.7 °C 20000 m 0   0 cm 6 min 177.7 W/m² 1022.4 hPa
10:24 18.8 °C 12.8 °C 68 % 4 km/h (7 km/h) 0 mm0 mm 19.6 °C 19.8 °C 21.9 °C 21.7 °C 20000 m 0   0 cm 6 min 176.9 W/m² 1022.4 hPa
10:18 18.7 °C 13.1 °C 70 % 4 km/h (7 km/h) 0 mm0 mm 19.5 °C 19.8 °C 21.9 °C 21.7 °C 20000 m 0   0 cm 6 min 170.8 W/m² 1022.4 hPa
10:12 18.2 °C 12.9 °C 71 % 4 km/h (6 km/h) 0 mm0 mm 19.5 °C 19.8 °C 21.9 °C 21.7 °C 20000 m 0   0 cm 6 min 162.8 W/m² 1022.2 hPa
10:06 17.8 °C 12.7 °C 72 % 5 km/h (8 km/h) 0 mm0 mm 19.4 °C 19.7 °C 21.9 °C 21.7 °C 20000 m 0   0 cm 6 min 152.9 W/m² 1022.3 hPa
10:00 17.7 °C 13 °C 74 % 4 km/h (8 km/h) 0 mm0 mm 19.3 °C 19.8 °C 21.9 °C 21.7 °C 20000 m 0   0 cm 6 min 145.3 W/m² 1022.3 hPa
09:54 17.5 °C 12.6 °C 73 % 5 km/h (7 km/h) 0 mm0 mm 19.3 °C 19.7 °C 21.9 °C 21.7 °C 20000 m 0   0 cm 6 min 135.7 W/m² 1022.2 hPa
09:48 17.4 °C 12.7 °C 74 % 4 km/h (7 km/h) 0 mm0 mm 19.3 °C 19.7 °C 21.9 °C 21.7 °C 20000 m 0   0 cm 6 min 132.3 W/m² 1022.1 hPa
09:42 17.4 °C 13.1 °C 76 % 3 km/h (7 km/h) 0 mm0 mm 19.3 °C 19.7 °C 21.9 °C 21.7 °C 20000 m 0   0 cm 6 min 133.6 W/m² 1022 hPa
09:36 17.2 °C 12.9 °C 76 % 2 km/h (4 km/h) 0 mm0 mm 19.2 °C 19.7 °C 21.9 °C 21.7 °C 19910 m 0   0 cm 6 min 120.8 W/m² 1022 hPa
09:30 17 °C 12.9 °C 77 % 2 km/h (4 km/h) 0 mm0 mm 19.2 °C 19.7 °C 22 °C 21.7 °C 19910 m 0   0 cm 6 min 121.2 W/m² 1022 hPa
09:24 16.5 °C 12.8 °C 79 % 2 km/h (4 km/h) 0 mm0 mm 19.2 °C 19.7 °C 21.9 °C 21.7 °C 20000 m 0   0 cm 6 min 106.9 W/m² 1022 hPa
09:18 16.2 °C 12.7 °C 80 % 2 km/h (4 km/h) 0 mm0 mm 19.2 °C 19.8 °C 21.9 °C 21.7 °C 20000 m 0   0 cm 6 min 109.5 W/m² 1022.1 hPa
09:12 15.7 °C 12.4 °C 81 % 2 km/h (4 km/h) 0 mm0 mm 19.2 °C 19.8 °C 21.9 °C 21.7 °C 20000 m 0   0 cm 6 min 105.6 W/m² 1022 hPa
09:06 15.3 °C 12.8 °C 85 % 3 km/h (4 km/h) 0 mm0 mm 19.2 °C 19.8 °C 21.9 °C 21.7 °C 20000 m 0   0 cm 6 min 92.3 W/m² 1021.9 hPa
09:00 14.9 °C 12 °C 83 % 3 km/h (4 km/h) 0 mm0.2 mm 19.2 °C 19.8 °C 22 °C 21.7 °C 20000 m 0   0 cm 2 min 55.8 W/m² 1021.9 hPa
08:54 15.1 °C 11.9 °C 81 % 3 km/h (5 km/h) 0 mm0 mm 19.2 °C 19.8 °C 22 °C 21.7 °C 20000 m 0   0 cm 0 min 42.4 W/m² 1022 hPa
08:48 15.3 °C 12.1 °C 81 % 2 km/h (5 km/h) 0 mm0 mm 19.2 °C 19.8 °C 22 °C 21.7 °C 20000 m 0   0 cm 1 min 47.6 W/m² 1022.1 hPa
08:42 15.5 °C 12.6 °C 83 % 0 km/h (4 km/h) 0 mm0 mm 19.2 °C 19.9 °C 22 °C 21.7 °C 20000 m 0   0 cm 6 min 90 W/m² 1022 hPa
08:36 14.9 °C 13.1 °C 89 % 0 km/h (3 km/h) 0 mm0 mm 19.3 °C 19.9 °C 22 °C 21.7 °C 20000 m 0   0 cm 6 min 98.2 W/m² 1022 hPa
08:30 14.1 °C 12.8 °C 92 % 0 km/h (3 km/h) 0 mm0 mm 19.3 °C 19.9 °C 22 °C 21.7 °C 19580 m 0   0 cm 6 min 87.6 W/m² 1022 hPa
08:24 13.5 °C 12.7 °C 95 % 0 km/h (3 km/h) 0.2 mm0 mm 19.3 °C 19.9 °C 22 °C 21.7 °C 19580 m 0   0 cm 6 min 74.1 W/m² 1022 hPa
08:18 12.9 °C 12 °C 94 % 0 km/h (3 km/h) 0 mm0 mm 19.3 °C 20 °C 22 °C 21.7 °C 20000 m 0   0 cm 6 min 52.2 W/m² 1022.1 hPa
08:12 12.6 °C 11.8 °C 95 % 0 km/h (2 km/h) 0 mm0 mm 19.3 °C 20 °C 22 °C 21.7 °C 20000 m 0   0 cm 3 min 33.3 W/m² 1022.1 hPa
08:06 12.5 °C 11.7 °C 95 % 0 km/h (2 km/h) 0 mm0 mm 19.4 °C 20 °C 22 °C 21.7 °C 20000 m 0   0 cm 3 min 26.6 W/m² 1022.1 hPa
08:00 12.4 °C 11.6 °C 95 % 0 km/h (2 km/h) 0 mm0 mm 19.4 °C 20 °C 22 °C 21.7 °C 20000 m 0   0 cm 0 min 16.8 W/m² 1022 hPa
07:54 12.3 °C 11.5 °C 95 % 0 km/h (3 km/h) 0 mm0 mm 19.5 °C 20 °C 22 °C 21.7 °C 19620 m 0   0 cm 0 min 10.7 W/m² 1022 hPa
07:48 12.3 °C 11.7 °C 96 % 3 km/h (6 km/h) 0 mm0 mm 19.4 °C 20.1 °C 22 °C 21.7 °C 19620 m 0   0 cm 0 min 9.4 W/m² 1021.9 hPa
07:42 12.3 °C 11.7 °C 96 % 4 km/h (6 km/h) 0 mm0 mm 19.5 °C 20.1 °C 22 °C 21.7 °C 20000 m 0   0 cm 0 min 5.3 W/m² 1021.9 hPa
07:36 12.2 °C 11.6 °C 96 % 4 km/h (5 km/h) 0 mm0 mm 19.5 °C 20.1 °C 22 °C 21.7 °C 20000 m 0   0 cm 0 min 0 W/m² 1021.8 hPa
07:30 12.2 °C 11.6 °C 96 % 4 km/h (6 km/h) 0 mm0 mm 19.6 °C 20.2 °C 22.1 °C 21.7 °C 20000 m 0   0 cm 0 min 0 W/m² 1021.8 hPa
07:24 12.4 °C 11.9 °C 97 % 4 km/h (6 km/h) 0 mm0 mm 19.6 °C 20.1 °C 22 °C 21.7 °C 20000 m 0   0 cm 0 min 0 W/m² 1021.8 hPa
07:18 12.3 °C 11.8 °C 97 % 4 km/h (5 km/h) 0 mm0 mm 19.6 °C 20.2 °C 22.1 °C 21.7 °C 20000 m 0   0 cm 0 min 0 W/m² 1021.8 hPa
07:12 12.1 °C 11.6 °C 97 % 4 km/h (5 km/h) 0 mm0 mm 19.6 °C 20.2 °C 22 °C 21.7 °C 20000 m 0   0 cm 0 min 0 W/m² 1021.7 hPa
07:06 12.1 °C 11.6 °C 97 % 3 km/h (4 km/h) 0 mm0 mm 19.7 °C 20.3 °C 22.1 °C 21.7 °C 20000 m 0   0 cm 0 min 0 W/m² 1021.6 hPa
07:00 12.1 °C 11.5 °C 96 % 2 km/h (4 km/h) 0 mm0 mm 19.7 °C 20.3 °C 22.1 °C 21.7 °C 20000 m 0   0 cm 0 min 0 W/m² 1021.6 hPa 7 Octas
06:54 12.1 °C 11.5 °C 96 % 3 km/h (4 km/h) 0 mm0 mm 19.7 °C 20.3 °C 22.1 °C 21.7 °C 20000 m 0   0 cm 0 min 0 W/m² 1021.7 hPa
06:48 12.2 °C 11.6 °C 96 % 3 km/h (4 km/h) 0 mm0 mm 19.8 °C 20.4 °C 22.1 °C 21.7 °C 20000 m 0   0 cm 0 min 0 W/m² 1021.7 hPa
06:42 12.2 °C 11.6 °C 96 % 3 km/h (4 km/h) 0 mm0 mm 19.8 °C 20.4 °C 22.1 °C 21.7 °C 20000 m 0   0 cm 0 min 0 W/m² 1021.8 hPa
06:36 12.2 °C 11.7 °C 97 % 3 km/h (4 km/h) 0 mm0 mm 19.8 °C 20.4 °C 22.1 °C 21.7 °C 20000 m 0   0 cm 0 min 0 W/m² 1021.8 hPa
06:30 12.1 °C 11.6 °C 97 % 2 km/h (4 km/h) 0 mm0 mm 19.8 °C 20.5 °C 22.1 °C 21.7 °C 20000 m 0   0 cm 0 min 0 W/m² 1021.7 hPa
06:24 12 °C 11.4 °C 96 % 0 km/h (3 km/h) 0 mm0 mm 19.9 °C 20.5 °C 22.1 °C 21.7 °C 20000 m 0   0 cm 0 min 0 W/m² 1021.6 hPa
06:18 12 °C 11.4 °C 96 % 2 km/h (3 km/h) 0 mm0 mm 19.9 °C 20.5 °C 22.1 °C 21.7 °C 20000 m 0   0 cm 0 min 0 W/m² 1021.5 hPa
06:12 12 °C 11.4 °C 96 % 3 km/h (4 km/h) 0 mm0 mm 19.9 °C 20.5 °C 22.1 °C 21.7 °C 20000 m 0   0 cm 0 min 0 W/m² 1021.6 hPa
06:06 12 °C 11.4 °C 96 % 4 km/h (5 km/h) 0 mm0 mm 20 °C 20.6 °C 22.1 °C 21.7 °C 20000 m 0   0 cm 0 min 0 W/m² 1021.5 hPa
06:00 12.1 °C 11.5 °C 96 % 4 km/h (5 km/h) 0 mm0 mm 20 °C 20.6 °C 22.1 °C 21.7 °C 20000 m 0   0 cm 0 min 0 W/m² 1021.6 hPa 6 Octas
05:54 12.2 °C 11.6 °C 96 % 3 km/h (5 km/h) 0 mm0 mm 20 °C 20.6 °C 22.1 °C 21.7 °C 20000 m 0   0 cm 0 min 0 W/m² 1021.6 hPa
05:48 12.1 °C 11.3 °C 95 % 0 km/h (5 km/h) 0 mm0 mm 20 °C 20.7 °C 22.1 °C 21.7 °C 20000 m 0   0 cm 0 min 0 W/m² 1021.5 hPa
05:42 12.2 °C 11.4 °C 95 % 0 km/h (2 km/h) 0 mm0 mm 20.1 °C 20.7 °C 22.1 °C 21.7 °C 20000 m 0   0 cm 0 min 0 W/m² 1021.5 hPa
05:36 12.3 °C 11.5 °C 95 % 2 km/h (4 km/h) 0 mm0 mm 20.1 °C 20.7 °C 22.1 °C 21.7 °C 20000 m 0   0 cm 0 min 0 W/m² 1021.5 hPa
05:30 12.3 °C 11.5 °C 95 % 3 km/h (4 km/h) 0 mm0 mm 20.2 °C 20.7 °C 22.1 °C 21.7 °C 20000 m 0   0 cm 0 min 0 W/m² 1021.5 hPa
05:24 12.6 °C 12 °C 96 % 2 km/h (4 km/h) 0 mm0 mm 20.2 °C 20.8 °C 22.1 °C 21.7 °C 20000 m 0   0 cm 0 min 0 W/m² 1021.5 hPa
05:18 12.5 °C 11.9 °C 96 % 0 km/h (2 km/h) 0 mm0 mm 20.2 °C 20.8 °C 22.1 °C 21.7 °C 20000 m 0   0 cm 0 min 0 W/m² 1021.4 hPa
05:12 12.5 °C 11.9 °C 96 % 0 km/h (2 km/h) 0 mm0 mm 20.3 °C 20.8 °C 22.1 °C 21.7 °C 20000 m 0   0 cm 0 min 0 W/m² 1021.4 hPa
05:06 12.4 °C 11.8 °C 96 % 0 km/h (2 km/h) 0 mm0 mm 20.3 °C 20.9 °C 22.1 °C 21.7 °C 20000 m 0   0 cm 0 min 0 W/m² 1021.4 hPa
05:00 12.5 °C 11.9 °C 96 % 2 km/h (3 km/h) 0 mm0 mm 20.4 °C 20.9 °C 22.1 °C 21.7 °C 20000 m 0   0 cm 0 min 0 W/m² 1021.4 hPa
04:54 12.5 °C 12 °C 97 % 3 km/h (3 km/h) 0 mm0 mm 20.4 °C 21 °C 22.1 °C 21.7 °C 20000 m 0   0 cm 0 min 0 W/m² 1021.4 hPa
04:48 12.3 °C 11.7 °C 96 % 2 km/h (3 km/h) 0 mm0 mm 20.4 °C 21 °C 22.1 °C 21.7 °C 20000 m 0   0 cm 0 min 0 W/m² 1021.5 hPa
04:42 12.3 °C 11.5 °C 95 % 2 km/h (3 km/h) 0 mm0 mm 20.4 °C 21 °C 22.1 °C 21.7 °C 20000 m 0   0 cm 0 min 0 W/m² 1021.5 hPa
04:36 12.4 °C 11.6 °C 95 % 3 km/h (5 km/h) 0 mm0 mm 20.5 °C 21 °C 22.1 °C 21.7 °C 20000 m 0   0 cm 0 min 0 W/m² 1021.5 hPa
04:30 12.4 °C 11.6 °C 95 % 4 km/h (5 km/h) 0 mm0 mm 20.5 °C 21.1 °C 22.1 °C 21.7 °C 20000 m 0   0 cm 0 min 0 W/m² 1021.5 hPa
04:24 12.5 °C 11.7 °C 95 % 4 km/h (5 km/h) 0 mm0 mm 20.6 °C 21.1 °C 22.1 °C 21.7 °C 20000 m 0   0 cm 0 min 0 W/m² 1021.6 hPa
04:18 12.6 °C 11.8 °C 95 % 2 km/h (4 km/h) 0 mm0 mm 20.6 °C 21.2 °C 22.1 °C 21.7 °C 20000 m 0   0 cm 0 min 0 W/m² 1021.6 hPa
04:12 12.5 °C 11.6 °C 94 % 0 km/h (2 km/h) 0 mm0 mm 20.7 °C 21.2 °C 22.1 °C 21.7 °C 20000 m 0   0 cm 0 min 0 W/m² 1021.6 hPa
04:06 12.6 °C 11.7 °C 94 % 2 km/h (3 km/h) 0 mm0 mm 20.7 °C 21.2 °C 22.1 °C 21.7 °C 20000 m 0   0 cm 0 min 0 W/m² 1021.6 hPa
04:00 12.7 °C 11.8 °C 94 % 4 km/h (6 km/h) 0 mm0 mm 20.7 °C 21.3 °C 22.1 °C 21.7 °C 20000 m 0   0 cm 0 min 0 W/m² 1021.5 hPa
03:54 12.8 °C 11.9 °C 94 % 4 km/h (6 km/h) 0 mm0 mm 20.8 °C 21.3 °C 22.1 °C 21.8 °C 20000 m 0   0 cm 0 min 0 W/m² 1021.7 hPa
03:48 12.9 °C 12 °C 94 % 4 km/h (5 km/h) 0 mm0 mm 20.8 °C 21.4 °C 22.1 °C 21.8 °C 20000 m 0   0 cm 0 min 0 W/m² 1021.7 hPa
03:42 13 °C 12.1 °C 94 % 4 km/h (5 km/h) 0 mm0 mm 20.8 °C 21.4 °C 22.1 °C 21.7 °C 20000 m 0   0 cm 0 min 0 W/m² 1021.7 hPa
03:36 13.1 °C 12.3 °C 95 % 3 km/h (4 km/h) 0 mm0 mm 20.9 °C 21.4 °C 22.1 °C 21.7 °C 20000 m 0   0 cm 0 min 0 W/m² 1021.6 hPa
03:30 12.9 °C 12.1 °C 95 % 2 km/h (3 km/h) 0 mm0 mm 20.9 °C 21.4 °C 22.1 °C 21.7 °C 20000 m 0   0 cm 0 min 0 W/m² 1021.6 hPa
03:24 13 °C 12.2 °C 95 % 3 km/h (3 km/h) 0 mm0 mm 20.9 °C 21.5 °C 22.1 °C 21.7 °C 20000 m 0   0 cm 0 min 0 W/m² 1021.4 hPa
03:18 13 °C 12.2 °C 95 % 3 km/h (3 km/h) 0 mm0 mm 21 °C 21.5 °C 22.1 °C 21.7 °C 20000 m 0   0 cm 0 min 0 W/m² 1021.4 hPa
03:12 13 °C 11.9 °C 93 % 2 km/h (5 km/h) 0 mm0 mm 21 °C 21.6 °C 22.1 °C 21.7 °C 20000 m 0   0 cm 0 min 0 W/m² 1021.6 hPa
03:06 13.2 °C 12.3 °C 94 % 4 km/h (6 km/h) 0 mm0 mm 21.1 °C 21.6 °C 22.1 °C 21.7 °C 20000 m 0   0 cm 0 min 0 W/m² 1021.6 hPa
03:00 13.2 °C 12.1 °C 93 % 3 km/h (6 km/h) 0 mm0 mm 21.1 °C 21.6 °C 22.1 °C 21.8 °C 20000 m 0   0 cm 0 min 0 W/m² 1021.7 hPa
02:54 13.2 °C 12.3 °C 94 % 2 km/h (3 km/h) 0 mm0 mm 21.2 °C 21.7 °C 22.1 °C 21.7 °C 20000 m 0   0 cm 0 min 0 W/m² 1021.7 hPa
02:48 13.3 °C 12.4 °C 94 % 2 km/h (3 km/h) 0 mm0 mm 21.2 °C 21.7 °C 22 °C 21.7 °C 20000 m 0   0 cm 0 min 0 W/m² 1021.4 hPa
02:42 13.3 °C 12.4 °C 94 % 2 km/h (3 km/h) 0 mm0 mm 21.2 °C 21.7 °C 22.1 °C 21.7 °C 20000 m 0   0 cm 0 min 0 W/m² 1021.4 hPa
02:36 13.3 °C 12.2 °C 93 % 2 km/h (3 km/h) 0 mm0 mm 21.3 °C 21.8 °C 22 °C 21.7 °C 20000 m 0   0 cm 0 min 0 W/m² 1021.4 hPa
02:30 13.3 °C 12.2 °C 93 % 2 km/h (3 km/h) 0 mm0 mm 21.4 °C 21.8 °C 22 °C 21.7 °C 20000 m 0   0 cm 0 min 0 W/m² 1021.4 hPa
02:24 13.3 °C 12 °C 92 % 0 km/h (3 km/h) 0 mm0 mm 21.4 °C 21.9 °C 22.1 °C 21.8 °C 20000 m 0   0 cm 0 min 0 W/m² 1021.5 hPa
02:18 13.3 °C 12 °C 92 % 0 km/h (2 km/h) 0 mm0 mm 21.4 °C 21.9 °C 22 °C 21.7 °C 20000 m 0   0 cm 0 min 0 W/m² 1021.4 hPa
02:12 13.5 °C 12.2 °C 92 % 2 km/h (4 km/h) 0 mm0 mm 21.5 °C 21.9 °C 22 °C 21.8 °C 20000 m 0   0 cm 0 min 0 W/m² 1021.4 hPa
02:06 13.6 °C 12.3 °C 92 % 3 km/h (4 km/h) 0 mm0 mm 21.5 °C 22 °C 22 °C 21.7 °C 20000 m 0   0 cm 0 min 0 W/m² 1021.5 hPa
02:00 13.7 °C 12.3 °C 91 % 3 km/h (4 km/h) 0 mm0 mm 21.5 °C 22 °C 22 °C 21.8 °C 20000 m 0   0 cm 0 min 0 W/m² 1021.5 hPa
01:54 13.6 °C 12 °C 90 % 3 km/h (5 km/h) 0 mm0 mm 21.6 °C 22.1 °C 22 °C 21.8 °C 20000 m 0   0 cm 0 min 0 W/m² 1021.5 hPa
01:48 13.7 °C 12.4 °C 92 % 3 km/h (4 km/h) 0 mm0 mm 21.7 °C 22.1 °C 22 °C 21.7 °C 20000 m 0   0 cm 0 min 0 W/m² 1021.4 hPa
01:42 13.6 °C 12.3 °C 92 % 3 km/h (5 km/h) 0 mm0 mm 21.7 °C 22.1 °C 22 °C 21.8 °C 20000 m 0   0 cm 0 min 0 W/m² 1021.4 hPa
01:36 13.8 °C 12.2 °C 90 % 4 km/h (5 km/h) 0 mm0 mm 21.8 °C 22.2 °C 21.9 °C 21.7 °C 20000 m 0   0 cm 0 min 0 W/m² 1021.5 hPa
01:30 13.9 °C 12.3 °C 90 % 4 km/h (5 km/h) 0 mm0 mm 21.8 °C 22.2 °C 21.9 °C 21.7 °C 20000 m 0   0 cm 0 min 0 W/m² 1021.5 hPa
01:24 14 °C 12.4 °C 90 % 4 km/h (5 km/h) 0 mm0 mm 21.8 °C 22.3 °C 22 °C 21.7 °C 20000 m 0   0 cm 0 min 0 W/m² 1021.6 hPa
01:18 14.1 °C 12.5 °C 90 % 4 km/h (5 km/h) 0 mm0 mm 21.9 °C 22.3 °C 21.9 °C 21.7 °C 20000 m 0   0 cm 0 min 0 W/m² 1021.6 hPa
01:12 14.2 °C 12.6 °C 90 % 4 km/h (5 km/h) 0 mm0 mm 22 °C 22.4 °C 21.9 °C 21.7 °C 20000 m 0   0 cm 0 min 0 W/m² 1021.7 hPa
01:06 14.3 °C 12.5 °C 89 % 3 km/h (4 km/h) 0 mm0 mm 22 °C 22.4 °C 21.9 °C 21.8 °C 20000 m 0   0 cm 0 min 0 W/m² 1021.8 hPa
01:00 14.4 °C 12.4 °C 88 % 3 km/h (3 km/h) 0 mm0 mm 22.1 °C 22.4 °C 21.9 °C 21.7 °C 20000 m 0   0 cm 0 min 0 W/m² 1021.7 hPa
00:54 14.6 °C 12.6 °C 88 % 3 km/h (3 km/h) 0 mm0 mm 22.1 °C 22.5 °C 21.9 °C 21.7 °C 20000 m 0   0 cm 0 min 0 W/m² 1021.6 hPa
00:48 14.7 °C 12.7 °C 88 % 3 km/h (5 km/h) 0 mm0 mm 22.2 °C 22.5 °C 21.9 °C 21.8 °C 20000 m 0   0 cm 0 min 0 W/m² 1021.6 hPa
00:42 14.8 °C 12.7 °C 87 % 3 km/h (5 km/h) 0 mm0 mm 22.2 °C 22.5 °C 21.9 °C 21.7 °C 20000 m 0   0 cm 0 min 0 W/m² 1021.7 hPa
00:36 14.8 °C 12.7 °C 87 % 3 km/h (5 km/h) 0 mm0 mm 22.3 °C 22.6 °C 21.9 °C 21.8 °C 20000 m 0   0 cm 0 min 0 W/m² 1021.6 hPa
00:30 14.7 °C 12.7 °C 88 % 3 km/h (5 km/h) 0 mm0 mm 22.3 °C 22.6 °C 21.9 °C 21.8 °C 20000 m 0   0 cm 0 min 0 W/m² 1021.5 hPa
00:24 14.7 °C 12.7 °C 88 % 3 km/h (8 km/h) 0 mm0 mm 22.3 °C 22.7 °C 21.9 °C 21.8 °C 20000 m 0   0 cm 0 min 0 W/m² 1021.5 hPa
00:18 14.7 °C 12.7 °C 88 % 4 km/h (9 km/h) 0 mm0 mm 22.4 °C 22.7 °C 21.9 °C 21.7 °C 20000 m 0   0 cm 0 min 0 W/m² 1021.5 hPa
00:12 14.9 °C 12.6 °C 86 % 4 km/h (5 km/h) 0 mm0 mm 22.5 °C 22.8 °C 21.9 °C 21.8 °C 20000 m 0   0 cm 0 min 0 W/m² 1021.6 hPa
00:06 15 °C 12.7 °C 86 % 4 km/h (5 km/h) 0 mm0 mm 22.5 °C 22.8 °C 21.9 °C 21.8 °C 20000 m 0   0 cm 0 min 0 W/m² 1021.7 hPa
00:00 15.1 °C 12.8 °C 86 % 4 km/h (5 km/h) 0 mm0 mm 22.6 °C 22.9 °C 21.9 °C 21.8 °C 20000 m 0   0 cm 0 min 0 W/m² 1021.6 hPa

Données via Météo-France

Relevés météo à Auxerre-Perrigny

Cette page rassemble les observations de la station de Auxerre-Perrigny : température, humidité, vent, précipitations et pression atmosphérique. Les graphiques facilitent le suivi de la journée, tandis que le tableau donne accès aux mesures horaires et infra-horaires disponibles.

Pour replacer ces mesures dans leur contexte, consultez la climatologie de Auxerre-Perrigny. Retrouvez aussi la carte des observations météo en temps réel.